Time;durP1;ratioP1;P1;durP2;ratioP2;P2;SDS_P1;SDS_P2;PMS_P1;PMS_P2;Temp;Humidity;BMP_temperature;BMP_pressure;BME280_temperature;BME280_humidity;BME280_pressure;Samples;Min_cycle;Max_cycle;Signal;HPM_P1;HPM_P2
2023/04/24 00:00:05;;;;;;;2.60;2.25;;;;;;;;;;5035721;28;20136;-89
2023/04/24 00:02:32;;;;;;;4.13;2.80;;;;;;;;;;5018470;28;20410;-89
2023/04/24 00:05:04;;;;;;;2.40;2.30;;;;;;;;;;5018804;28;20515;-89
2023/04/24 00:07:31;;;;;;;2.50;2.30;;;;;;;;;;5018174;28;20081;-89
2023/04/24 00:09:59;;;;;;;2.33;2.13;;;;;;;;;;5018181;28;20476;-89
2023/04/24 00:12:26;;;;;;;2.22;2.13;;;;;;;;;;5035432;28;20068;-88
2023/04/24 00:14:54;;;;;;;2.20;1.90;;;;;;;;;;5017856;28;20045;-89
2023/04/24 00:17:21;;;;;;;3.38;1.90;;;;;;;;;;5018067;28;20527;-89
2023/04/24 00:19:50;;;;;;;2.10;2.00;;;;;;;;;;5018171;28;20045;-89
2023/04/24 00:22:20;;;;;;;4.00;2.10;;;;;;;;;;5035356;28;20084;-89
2023/04/24 00:24:47;;;;;;;3.22;2.50;;;;;;;;;;5035160;28;20464;-89
2023/04/24 00:27:14;;;;;;;2.67;2.47;;;;;;;;;;5035083;28;20053;-89
2023/04/24 00:29:42;;;;;;;3.00;2.72;;;;;;;;;;5035120;28;20137;-89
2023/04/24 00:32:09;;;;;;;6.43;3.22;;;;;;;;;;5017945;28;20049;-88
2023/04/24 00:34:36;;;;;;;6.90;2.45;;;;;;;;;;5035282;28;20053;-88
2023/04/24 00:37:04;;;;;;;3.20;2.30;;;;;;;;;;5034854;28;20612;-89
2023/04/24 00:39:31;;;;;;;2.45;2.25;;;;;;;;;;5017604;28;20502;-89
2023/04/24 00:41:58;;;;;;;3.55;2.65;;;;;;;;;;5017456;28;20049;-89
2023/04/24 00:44:26;;;;;;;2.63;2.20;;;;;;;;;;5017668;28;20055;-89
2023/04/24 00:46:54;;;;;;;2.17;2.08;;;;;;;;;;5017687;28;20589;-89
2023/04/24 00:49:22;;;;;;;2.72;2.53;;;;;;;;;;5017572;28;20060;-89
2023/04/24 00:51:50;;;;;;;2.60;2.40;;;;;;;;;;5017677;28;20390;-90
2023/04/24 00:54:19;;;;;;;2.22;2.13;;;;;;;;;;5017693;28;20072;-89
2023/04/24 00:56:46;;;;;;;2.35;2.25;;;;;;;;;;5017501;28;20060;-89
2023/04/24 00:59:14;;;;;;;4.28;2.80;;;;;;;;;;5034709;28;20482;-89
2023/04/24 01:01:41;;;;;;;2.75;2.55;;;;;;;;;;5034307;28;20049;-89
2023/04/24 01:04:10;;;;;;;2.55;2.33;;;;;;;;;;5016957;28;20476;-89
2023/04/24 01:06:39;;;;;;;2.50;2.30;;;;;;;;;;5017025;28;20045;-90
2023/04/24 01:09:07;;;;;;;2.70;2.45;;;;;;;;;;5017044;28;20055;-90
2023/04/24 01:11:35;;;;;;;5.72;2.95;;;;;;;;;;5016748;28;20071;-90
2023/04/24 01:14:02;;;;;;;4.07;3.78;;;;;;;;;;5017189;28;20490;-89
2023/04/24 01:16:29;;;;;;;4.88;3.88;;;;;;;;;;5016919;28;20049;-89
2023/04/24 01:18:57;;;;;;;4.70;3.50;;;;;;;;;;5016765;28;20054;-90
2023/04/24 01:21:24;;;;;;;4.47;3.90;;;;;;;;;;5034233;28;20129;-89
2023/04/24 01:23:51;;;;;;;5.70;3.53;;;;;;;;;;5034322;28;20059;-89
2023/04/24 01:26:19;;;;;;;8.13;4.72;;;;;;;;;;5016873;28;20053;-90
2023/04/24 01:28:47;;;;;;;4.00;3.70;;;;;;;;;;5016564;28;20124;-89
2023/04/24 01:31:15;;;;;;;5.78;4.22;;;;;;;;;;5016188;28;20493;-89
2023/04/24 01:33:43;;;;;;;4.82;3.63;;;;;;;;;;5016727;28;20344;-88
2023/04/24 01:36:11;;;;;;;3.83;3.53;;;;;;;;;;5033886;28;20133;-89
2023/04/24 01:38:39;;;;;;;3.33;3.13;;;;;;;;;;5016632;28;20060;-89
2023/04/24 01:41:06;;;;;;;4.57;3.10;;;;;;;;;;5034103;28;20172;-88
2023/04/24 01:43:33;;;;;;;2.72;2.53;;;;;;;;;;5033689;28;20049;-89
2023/04/24 01:46:00;;;;;;;3.22;3.03;;;;;;;;;;5033638;28;20055;-89
2023/04/24 01:48:28;;;;;;;3.55;3.00;;;;;;;;;;5033728;28;20046;-89
2023/04/24 01:50:55;;;;;;;2.80;2.60;;;;;;;;;;5033838;28;20060;-88
2023/04/24 01:53:22;;;;;;;2.70;2.38;;;;;;;;;;5033706;28;20049;-89
2023/04/24 01:55:49;;;;;;;2.90;2.75;;;;;;;;;;5033676;28;20059;-91
2023/04/24 01:58:16;;;;;;;3.58;2.58;;;;;;;;;;5016337;28;20068;-89
2023/04/24 02:00:44;;;;;;;3.33;3.00;;;;;;;;;;5033841;28;20059;-88
2023/04/24 02:03:11;;;;;;;6.25;2.63;;;;;;;;;;5032131;28;20045;-89
2023/04/24 02:05:39;;;;;;;4.13;3.15;;;;;;;;;;5015818;28;20523;-89
2023/04/24 02:08:06;;;;;;;3.33;3.03;;;;;;;;;;5016507;28;20421;-90
2023/04/24 02:10:33;;;;;;;5.05;3.38;;;;;;;;;;5019294;28;20050;-90
2023/04/24 02:13:01;;;;;;;11.35;3.50;;;;;;;;;;5016302;28;20053;-89
2023/04/24 02:15:28;;;;;;;4.85;3.70;;;;;;;;;;5033163;28;20052;-88
2023/04/24 02:17:55;;;;;;;3.42;3.13;;;;;;;;;;5016113;28;20409;-90
2023/04/24 02:20:22;;;;;;;3.80;3.05;;;;;;;;;;5015701;28;20045;-89
2023/04/24 02:22:50;;;;;;;5.75;3.60;;;;;;;;;;5016080;28;20441;-89
2023/04/24 02:25:17;;;;;;;5.45;2.97;;;;;;;;;;5015877;28;20052;-89
2023/04/24 02:27:46;;;;;;;3.92;2.35;;;;;;;;;;5015709;28;20524;-88
2023/04/24 02:30:14;;;;;;;3.65;2.25;;;;;;;;;;5032993;28;20053;-88
2023/04/24 02:32:41;;;;;;;2.58;2.38;;;;;;;;;;5032789;28;20052;-84
2023/04/24 02:35:08;;;;;;;2.92;1.90;;;;;;;;;;5033141;28;20474;-89
2023/04/24 02:37:36;;;;;;;2.75;1.88;;;;;;;;;;5032959;28;20053;-89
2023/04/24 02:40:03;;;;;;;1.90;1.80;;;;;;;;;;5016060;28;20155;-87
2023/04/24 02:42:31;;;;;;;2.03;1.92;;;;;;;;;;5036542;28;20485;-92
2023/04/24 02:44:58;;;;;;;4.32;2.00;;;;;;;;;;5037202;28;20133;-88
2023/04/24 02:47:25;;;;;;;3.90;2.05;;;;;;;;;;5019243;28;20049;-88
2023/04/24 02:49:53;;;;;;;3.20;1.70;;;;;;;;;;5036684;28;20053;-89
2023/04/24 02:52:20;;;;;;;2.85;1.90;;;;;;;;;;5036572;28;20054;-88
2023/04/24 02:54:47;;;;;;;3.25;1.92;;;;;;;;;;5019278;28;20045;-86
2023/04/24 02:57:15;;;;;;;1.95;1.75;;;;;;;;;;5019088;28;20053;-88
2023/04/24 02:59:42;;;;;;;1.52;1.50;;;;;;;;;;5036622;28;20068;-87
2023/04/24 03:02:10;;;;;;;2.97;1.60;;;;;;;;;;5019188;28;20065;-88
2023/04/24 03:04:37;;;;;;;1.88;1.60;;;;;;;;;;5036465;28;20095;-89
2023/04/24 03:07:05;;;;;;;4.32;1.50;;;;;;;;;;5018995;28;20064;-88
2023/04/24 03:09:32;;;;;;;1.33;1.23;;;;;;;;;;5018781;28;20056;-88
2023/04/24 03:12:00;;;;;;;1.20;1.10;;;;;;;;;;5019017;28;20413;-86
2023/04/24 03:14:29;;;;;;;1.50;1.27;;;;;;;;;;5018683;28;20049;-90
2023/04/24 03:16:56;;;;;;;1.35;1.10;;;;;;;;;;5036415;28;20060;-87
2023/04/24 03:19:24;;;;;;;2.20;1.13;;;;;;;;;;5036229;28;20041;-88
2023/04/24 03:21:51;;;;;;;1.88;1.00;;;;;;;;;;5036628;28;20049;-90
2023/04/24 03:24:18;;;;;;;1.38;1.27;;;;;;;;;;5018580;28;20049;-85
2023/04/24 03:26:45;;;;;;;2.63;1.00;;;;;;;;;;5036009;28;20494;-89
2023/04/24 03:29:12;;;;;;;1.02;0.90;;;;;;;;;;5018593;28;20052;-89
2023/04/24 03:31:40;;;;;;;2.85;0.70;;;;;;;;;;5018822;28;20053;-87
2023/04/24 03:34:07;;;;;;;1.45;1.00;;;;;;;;;;5019014;28;20045;-88
2023/04/24 03:36:34;;;;;;;3.35;1.02;;;;;;;;;;5018576;28;20122;-90
2023/04/24 03:39:01;;;;;;;1.10;0.95;;;;;;;;;;5035706;28;20131;-88
2023/04/24 03:41:30;;;;;;;2.80;0.90;;;;;;;;;;5035683;28;20052;-87
2023/04/24 03:43:57;;;;;;;5.18;0.90;;;;;;;;;;5018430;28;20084;-88
2023/04/24 03:46:24;;;;;;;1.25;1.00;;;;;;;;;;5018557;28;20052;-90
2023/04/24 03:48:51;;;;;;;3.15;0.93;;;;;;;;;;5018467;28;20046;-89
2023/04/24 03:51:18;;;;;;;0.68;0.68;;;;;;;;;;5035609;28;20060;-86
2023/04/24 03:53:46;;;;;;;2.28;0.90;;;;;;;;;;5035465;28;20052;-88
2023/04/24 03:56:13;;;;;;;1.63;0.90;;;;;;;;;;5035637;28;20060;-89
2023/04/24 03:58:40;;;;;;;1.40;0.88;;;;;;;;;;5018359;28;20045;-91
2023/04/24 04:01:08;;;;;;;2.10;0.98;;;;;;;;;;5018125;28;20049;-88
2023/04/24 04:03:35;;;;;;;0.90;0.90;;;;;;;;;;5018207;28;20063;-86
2023/04/24 04:06:03;;;;;;;4.70;0.93;;;;;;;;;;5035521;28;20143;-90
2023/04/24 04:08:30;;;;;;;2.15;0.65;;;;;;;;;;5017895;28;20055;-86
2023/04/24 04:10:57;;;;;;;8.75;1.25;;;;;;;;;;5017827;28;20132;-87
2023/04/24 04:13:24;;;;;;;4.43;0.90;;;;;;;;;;5035176;28;20053;-88
2023/04/24 04:15:51;;;;;;;4.47;1.00;;;;;;;;;;5017767;28;20045;-87
2023/04/24 04:18:19;;;;;;;1.55;0.63;;;;;;;;;;5017637;28;20385;-85
2023/04/24 04:20:46;;;;;;;2.13;0.98;;;;;;;;;;5017469;28;20080;-88
2023/04/24 04:23:13;;;;;;;1.90;1.20;;;;;;;;;;5017734;28;20054;-90
2023/04/24 04:25:40;;;;;;;6.65;4.78;;;;;;;;;;5017750;28;20099;-87
2023/04/24 04:28:07;;;;;;;8.35;6.63;;;;;;;;;;5017919;28;20140;-88
2023/04/24 04:30:38;;;;;;;3.30;1.02;;;;;;;;;;5034852;28;20053;-87
2023/04/24 04:33:05;;;;;;;3.15;1.42;;;;;;;;;;5017818;28;20535;-88
2023/04/24 04:35:32;;;;;;;1.83;0.70;;;;;;;;;;5017523;28;20076;-88
2023/04/24 04:38:00;;;;;;;4.18;1.00;;;;;;;;;;5017723;28;20053;-88
2023/04/24 04:40:28;;;;;;;2.42;1.17;;;;;;;;;;5017547;28;20525;-88
2023/04/24 04:42:55;;;;;;;8.63;1.15;;;;;;;;;;5034972;28;20057;-88
2023/04/24 04:45:24;;;;;;;2.22;0.80;;;;;;;;;;5017375;28;20052;-89
2023/04/24 04:47:51;;;;;;;1.73;0.82;;;;;;;;;;5017343;28;20469;-87
2023/04/24 04:50:19;;;;;;;1.92;1.00;;;;;;;;;;5017289;28;20049;-87
2023/04/24 04:52:46;;;;;;;3.13;1.08;;;;;;;;;;5034994;28;20045;-86
2023/04/24 04:55:14;;;;;;;5.18;1.35;;;;;;;;;;5034451;28;20049;-88
2023/04/24 04:57:41;;;;;;;2.70;1.10;;;;;;;;;;5017353;28;20052;-90
2023/04/24 05:00:10;;;;;;;6.75;1.20;;;;;;;;;;5017177;28;20132;-88
2023/04/24 05:02:37;;;;;;;2.83;1.25;;;;;;;;;;5034436;28;20045;-89
2023/04/24 05:05:05;;;;;;;2.17;0.75;;;;;;;;;;5033421;28;20132;-87
2023/04/24 05:07:35;;;;;;;0.77;0.60;;;;;;;;;;5017258;28;20399;-88
2023/04/24 05:10:02;;;;;;;5.35;1.00;;;;;;;;;;5016991;28;20053;-88
2023/04/24 05:12:30;;;;;;;3.42;1.08;;;;;;;;;;5004453;28;20148;-87
2023/04/24 05:14:57;;;;;;;1.00;0.70;;;;;;;;;;5014340;28;20410;-88
2023/04/24 05:17:24;;;;;;;3.30;0.65;;;;;;;;;;4996947;28;20076;-86
2023/04/24 05:19:51;;;;;;;1.75;0.63;;;;;;;;;;4997334;28;20046;-88
2023/04/24 05:22:20;;;;;;;1.60;0.88;;;;;;;;;;4997158;28;20050;-86
2023/04/24 05:24:48;;;;;;;1.75;0.90;;;;;;;;;;5014463;28;20050;-87
2023/04/24 05:27:15;;;;;;;1.58;0.75;;;;;;;;;;4997070;28;20050;-87
2023/04/24 05:29:43;;;;;;;4.82;0.80;;;;;;;;;;4996471;28;20060;-88
2023/04/24 05:32:10;;;;;;;1.50;0.88;;;;;;;;;;4997365;28;20057;-88
2023/04/24 05:34:38;;;;;;;2.80;0.85;;;;;;;;;;4997134;28;20046;-87
2023/04/24 05:37:08;;;;;;;1.70;0.63;;;;;;;;;;4997098;28;20050;-89
2023/04/24 05:39:35;;;;;;;2.38;0.70;;;;;;;;;;4996945;28;20318;-86
2023/04/24 05:42:04;;;;;;;4.88;0.90;;;;;;;;;;4997102;28;20056;-90
2023/04/24 05:44:31;;;;;;;3.45;1.25;;;;;;;;;;4997281;28;20065;-89
2023/04/24 05:46:58;;;;;;;2.05;0.70;;;;;;;;;;4996983;28;20049;-89
2023/04/24 05:49:25;;;;;;;11.65;1.60;;;;;;;;;;4997175;28;20057;-90
2023/04/24 05:51:53;;;;;;;7.82;1.63;;;;;;;;;;4996707;28;20430;-88
2023/04/24 05:54:20;;;;;;;0.88;0.60;;;;;;;;;;4996946;28;20050;-88
2023/04/24 05:56:47;;;;;;;1.92;0.68;;;;;;;;;;4997179;28;20410;-89
2023/04/24 05:59:14;;;;;;;1.27;0.60;;;;;;;;;;4996807;28;20080;-90
2023/04/24 06:01:42;;;;;;;2.50;0.80;;;;;;;;;;4996737;28;20540;-88
2023/04/24 06:04:09;;;;;;;1.55;0.57;;;;;;;;;;4997028;28;20116;-88
2023/04/24 06:06:37;;;;;;;3.03;0.60;;;;;;;;;;5013430;28;20053;-88
2023/04/24 06:09:04;;;;;;;3.53;0.65;;;;;;;;;;4996823;28;20057;-88
2023/04/24 06:11:32;;;;;;;10.10;0.95;;;;;;;;;;4996505;28;20136;-88
2023/04/24 06:13:59;;;;;;;1.17;0.55;;;;;;;;;;4996483;28;20049;-87
2023/04/24 06:16:26;;;;;;;2.22;0.60;;;;;;;;;;4996475;28;20041;-91
2023/04/24 06:18:55;;;;;;;1.70;0.52;;;;;;;;;;4996433;28;20050;-88
2023/04/24 06:21:22;;;;;;;3.95;0.70;;;;;;;;;;4996462;28;20049;-88
2023/04/24 06:23:49;;;;;;;3.53;0.60;;;;;;;;;;4996461;28;20056;-88
2023/04/24 06:26:16;;;;;;;3.53;0.82;;;;;;;;;;4996362;28;20057;-89
2023/04/24 06:28:44;;;;;;;3.33;0.90;;;;;;;;;;4996231;28;20064;-86
2023/04/24 06:31:11;;;;;;;4.82;0.63;;;;;;;;;;5013655;28;20411;-91
2023/04/24 06:33:38;;;;;;;9.20;0.85;;;;;;;;;;5014007;28;20049;-90
2023/04/24 06:36:05;;;;;;;7.85;1.23;;;;;;;;;;4996491;28;20045;-89
2023/04/24 06:38:33;;;;;;;6.85;0.75;;;;;;;;;;4996402;28;20056;-88
2023/04/24 06:41:01;;;;;;;3.03;0.70;;;;;;;;;;4996380;28;20045;-88
2023/04/24 06:43:28;;;;;;;16.63;2.72;;;;;;;;;;4996355;28;20046;-89
2023/04/24 06:45:55;;;;;;;5.20;1.02;;;;;;;;;;4996433;28;20092;-89
2023/04/24 06:48:23;;;;;;;4.85;0.47;;;;;;;;;;4996222;28;20092;-92
2023/04/24 06:50:50;;;;;;;1.65;0.52;;;;;;;;;;4996228;28;20049;-88
2023/04/24 06:53:17;;;;;;;4.50;0.98;;;;;;;;;;5013351;28;20145;-90
2023/04/24 06:55:45;;;;;;;1.65;0.60;;;;;;;;;;4996181;28;20082;-87
2023/04/24 06:58:14;;;;;;;0.30;0.30;;;;;;;;;;4996192;28;20450;-86
2023/04/24 07:00:41;;;;;;;1.10;0.30;;;;;;;;;;4996158;28;20054;-88
2023/04/24 07:03:08;;;;;;;1.88;0.20;;;;;;;;;;5013454;28;20061;-87
2023/04/24 07:05:36;;;;;;;0.75;0.35;;;;;;;;;;4995795;28;20046;-91
2023/04/24 07:08:04;;;;;;;11.90;0.93;;;;;;;;;;4996113;28;20514;-87
2023/04/24 07:10:31;;;;;;;1.90;0.50;;;;;;;;;;5013233;28;20501;-89
2023/04/24 07:12:58;;;;;;;5.20;0.75;;;;;;;;;;5013170;28;20046;-87
2023/04/24 07:15:26;;;;;;;0.85;0.30;;;;;;;;;;5012888;28;20050;-91
2023/04/24 07:17:53;;;;;;;1.17;0.28;;;;;;;;;;4995944;28;20057;-86
2023/04/24 07:20:20;;;;;;;2.15;0.30;;;;;;;;;;5013075;28;20072;-88
2023/04/24 07:22:48;;;;;;;0.40;0.20;;;;;;;;;;5013354;28;20133;-88
2023/04/24 07:25:16;;;;;;;1.95;0.50;;;;;;;;;;4995508;28;20054;-88
2023/04/24 07:27:43;;;;;;;6.60;0.50;;;;;;;;;;5014886;28;20080;-89
2023/04/24 07:30:10;;;;;;;0.73;0.30;;;;;;;;;;5016511;28;20054;-89
2023/04/24 07:32:38;;;;;;;4.93;0.50;;;;;;;;;;5016440;28;20060;-88
2023/04/24 07:35:05;;;;;;;0.70;0.43;;;;;;;;;;4999401;28;20100;-88
2023/04/24 07:37:32;;;;;;;2.38;0.40;;;;;;;;;;4999114;28;20046;-88
2023/04/24 07:40:00;;;;;;;3.17;0.50;;;;;;;;;;4999089;28;20513;-88
2023/04/24 07:42:27;;;;;;;2.28;0.40;;;;;;;;;;4999203;28;20401;-89
2023/04/24 07:44:54;;;;;;;0.80;0.80;;;;;;;;;;4998960;28;20065;-89
2023/04/24 07:47:22;;;;;;;8.55;1.83;;;;;;;;;;4999037;28;20141;-89
2023/04/24 07:49:49;;;;;;;2.33;1.13;;;;;;;;;;4999373;28;20077;-88
2023/04/24 07:52:16;;;;;;;1.20;0.63;;;;;;;;;;4998830;28;20071;-89
2023/04/24 07:54:43;;;;;;;0.95;0.80;;;;;;;;;;4999195;28;20140;-91
2023/04/24 07:57:11;;;;;;;0.80;0.80;;;;;;;;;;4998767;28;20420;-88
2023/04/24 07:59:38;;;;;;;12.32;0.90;;;;;;;;;;4999004;28;20565;-89
2023/04/24 08:02:06;;;;;;;2.35;0.30;;;;;;;;;;4997213;28;20045;-90
2023/04/24 08:04:33;;;;;;;1.88;0.50;;;;;;;;;;5015695;28;20082;-85
2023/04/24 08:07:00;;;;;;;2.08;0.50;;;;;;;;;;4998873;28;20454;-88
2023/04/24 08:09:28;;;;;;;0.20;0.20;;;;;;;;;;5015950;28;20088;-89
2023/04/24 08:11:55;;;;;;;1.27;0.50;;;;;;;;;;5016280;28;20042;-89
2023/04/24 08:14:22;;;;;;;0.90;0.50;;;;;;;;;;4998703;28;20454;-89
2023/04/24 08:16:50;;;;;;;0.80;0.47;;;;;;;;;;4998730;28;20058;-90
2023/04/24 08:19:17;;;;;;;12.18;0.70;;;;;;;;;;5015581;28;20528;-91
2023/04/24 08:21:44;;;;;;;1.10;0.45;;;;;;;;;;5015713;28;20064;-86
2023/04/24 08:24:11;;;;;;;0.80;0.63;;;;;;;;;;4998402;28;20050;-88
2023/04/24 08:26:38;;;;;;;4.32;0.60;;;;;;;;;;5015867;28;20057;-87
2023/04/24 08:29:06;;;;;;;3.00;0.50;;;;;;;;;;5015518;28;20406;-86
2023/04/24 08:31:33;;;;;;;1.95;0.50;;;;;;;;;;4998399;28;20049;-91
2023/04/24 08:34:01;;;;;;;2.97;1.30;;;;;;;;;;4998164;28;20192;-87
2023/04/24 08:36:28;;;;;;;6.82;1.05;;;;;;;;;;4998470;28;20053;-89
2023/04/24 08:39:12;;;;;;;0.95;0.70;;;;;;;;;;5014448;28;20108;-84
2023/04/24 08:41:42;;;;;;;0.63;0.50;;;;;;;;;;4998220;28;20081;-87
2023/04/24 08:44:10;;;;;;;0.60;0.40;;;;;;;;;;5015516;28;20490;-88
2023/04/24 08:46:37;;;;;;;13.00;1.00;;;;;;;;;;4998135;28;20073;-88
2023/04/24 08:49:05;;;;;;;0.47;0.47;;;;;;;;;;4997878;28;20101;-87
2023/04/24 08:51:32;;;;;;;2.08;0.75;;;;;;;;;;4998313;28;20049;-88
2023/04/24 08:53:59;;;;;;;2.65;1.40;;;;;;;;;;4998058;28;20049;-91
2023/04/24 08:56:27;;;;;;;1.20;1.10;;;;;;;;;;4997734;28;20061;-88
2023/04/24 08:58:54;;;;;;;0.63;0.63;;;;;;;;;;4998257;28;20388;-86
2023/04/24 09:01:22;;;;;;;3.03;0.60;;;;;;;;;;4997959;28;20050;-87
2023/04/24 09:03:50;;;;;;;0.50;0.50;;;;;;;;;;5014730;28;20050;-88
2023/04/24 09:06:18;;;;;;;1.75;0.40;;;;;;;;;;5014926;28;20050;-88
2023/04/24 09:08:46;;;;;;;0.75;0.75;;;;;;;;;;4997540;28;20581;-88
2023/04/24 09:11:13;;;;;;;2.25;0.60;;;;;;;;;;4997502;28;20084;-90
2023/04/24 09:13:41;;;;;;;8.57;1.17;;;;;;;;;;5014693;28;20128;-88
2023/04/24 09:16:08;;;;;;;1.65;1.55;;;;;;;;;;4997212;28;20049;-88
2023/04/24 09:18:35;;;;;;;3.10;1.00;;;;;;;;;;4997660;28;20049;-89
2023/04/24 09:21:03;;;;;;;1.08;1.08;;;;;;;;;;4997704;28;20053;-88
2023/04/24 09:23:31;;;;;;;1.65;1.23;;;;;;;;;;4997230;28;20421;-89
2023/04/24 09:25:59;;;;;;;1.98;0.50;;;;;;;;;;4997176;28;20498;-90
2023/04/24 09:28:29;;;;;;;3.60;0.70;;;;;;;;;;4997197;28;20466;-88
2023/04/24 09:31:04;;;;;;;4.30;0.82;;;;;;;;;;4997263;28;20061;-84
2023/04/24 09:33:31;;;;;;;1.05;0.82;;;;;;;;;;4996976;28;20148;-85
2023/04/24 09:35:59;;;;;;;3.08;0.70;;;;;;;;;;5014424;28;20046;-87
2023/04/24 09:38:36;;;;;;;0.60;0.60;;;;;;;;;;4997232;28;20059;-87
2023/04/24 09:41:05;;;;;;;2.63;0.80;;;;;;;;;;5014434;28;20046;-89
2023/04/24 09:43:33;;;;;;;0.70;0.70;;;;;;;;;;4997165;28;20578;-88
2023/04/24 09:46:05;;;;;;;1.10;0.68;;;;;;;;;;4996906;28;20072;-87
2023/04/24 09:48:36;;;;;;;2.22;0.77;;;;;;;;;;5014242;28;20054;-88
2023/04/24 09:51:07;;;;;;;0.50;0.50;;;;;;;;;;5013837;28;20045;-86
2023/04/24 09:53:34;;;;;;;4.32;0.80;;;;;;;;;;4996720;28;20050;-89
2023/04/24 09:56:12;;;;;;;0.88;0.88;;;;;;;;;;5014246;28;20050;-90
2023/04/24 09:58:40;;;;;;;1.70;0.93;;;;;;;;;;4996902;28;20105;-87
2023/04/24 10:01:07;;;;;;;2.95;0.57;;;;;;;;;;4997038;28;20050;-88
2023/04/24 10:03:34;;;;;;;0.95;0.73;;;;;;;;;;4997269;28;20060;-89
2023/04/24 10:06:02;;;;;;;0.77;0.57;;;;;;;;;;4996683;28;20049;-89
2023/04/24 10:08:34;;;;;;;3.28;0.70;;;;;;;;;;4997039;28;20061;-88
2023/04/24 10:11:01;;;;;;;0.77;0.43;;;;;;;;;;4997131;28;20081;-89
2023/04/24 10:13:29;;;;;;;0.60;0.55;;;;;;;;;;5013764;28;20054;-86
2023/04/24 10:15:56;;;;;;;30.95;2.47;;;;;;;;;;5013837;28;20050;-90
2023/04/24 10:18:24;;;;;;;6.78;0.82;;;;;;;;;;4997043;28;20081;-88
2023/04/24 10:20:54;;;;;;;25.30;1.98;;;;;;;;;;5013968;28;20050;-88
2023/04/24 10:23:23;;;;;;;1.80;0.80;;;;;;;;;;4996763;28;20058;-89
2023/04/24 10:25:51;;;;;;;0.70;0.70;;;;;;;;;;5013702;28;20469;-89
2023/04/24 10:28:19;;;;;;;0.57;0.57;;;;;;;;;;4996638;28;20502;-89
2023/04/24 10:30:47;;;;;;;6.65;0.80;;;;;;;;;;4996255;28;20476;-88
2023/04/24 10:33:14;;;;;;;9.00;1.48;;;;;;;;;;5013351;28;20053;-90
2023/04/24 10:35:43;;;;;;;2.92;0.85;;;;;;;;;;4996854;28;20052;-92
2023/04/24 10:38:12;;;;;;;0.80;0.45;;;;;;;;;;4996797;28;20085;-88
2023/04/24 10:40:40;;;;;;;0.95;0.50;;;;;;;;;;4996390;28;20467;-90
2023/04/24 10:43:10;;;;;;;3.13;0.70;;;;;;;;;;4996625;28;20057;-90
2023/04/24 10:45:38;;;;;;;4.40;0.75;;;;;;;;;;5013913;28;20050;-87
2023/04/24 10:48:10;;;;;;;0.47;0.40;;;;;;;;;;4996767;28;20053;-90
2023/04/24 10:50:46;;;;;;;0.57;0.57;;;;;;;;;;4997219;28;20050;-86
2023/04/24 10:53:16;;;;;;;3.22;0.60;;;;;;;;;;5013610;28;20410;-92
2023/04/24 10:55:45;;;;;;;0.50;0.50;;;;;;;;;;4996140;28;20486;-88
2023/04/24 10:58:14;;;;;;;1.58;0.50;;;;;;;;;;4996407;28;20046;-90
2023/04/24 11:00:41;;;;;;;2.90;0.82;;;;;;;;;;5000857;28;20141;-89
2023/04/24 11:03:32;;;;;;;1.25;0.68;;;;;;;;;;5016435;28;20133;-90
2023/04/24 11:06:03;;;;;;;2.85;0.68;;;;;;;;;;5007874;28;20049;-89
2023/04/24 11:08:30;;;;;;;0.93;0.47;;;;;;;;;;4999854;28;20065;-88
2023/04/24 11:10:59;;;;;;;1.80;0.50;;;;;;;;;;5000467;28;20089;-86
2023/04/24 11:13:27;;;;;;;0.75;0.60;;;;;;;;;;5000084;28;20060;-89
2023/04/24 11:16:14;;;;;;;4.70;0.73;;;;;;;;;;4999896;28;20050;-89
2023/04/24 11:18:45;;;;;;;2.80;0.77;;;;;;;;;;5000081;28;20054;-88
2023/04/24 11:21:13;;;;;;;4.53;1.30;;;;;;;;;;4999520;28;20053;-87
2023/04/24 11:23:41;;;;;;;1.02;0.82;;;;;;;;;;4999684;28;20046;-88
2023/04/24 11:26:12;;;;;;;2.42;0.70;;;;;;;;;;4999641;28;20042;-89
2023/04/24 11:28:50;;;;;;;13.70;0.80;;;;;;;;;;4999231;28;20525;-89
2023/04/24 11:31:35;;;;;;;0.80;0.60;;;;;;;;;;4998851;28;20058;-88
2023/04/24 11:34:15;;;;;;;0.65;0.63;;;;;;;;;;5016806;28;20077;-91
2023/04/24 11:36:48;;;;;;;1.00;0.90;;;;;;;;;;4999253;28;20049;-90
2023/04/24 11:39:15;;;;;;;6.60;1.40;;;;;;;;;;4999192;28;20050;-90
2023/04/24 11:41:43;;;;;;;2.30;0.70;;;;;;;;;;4999685;28;20065;-88
2023/04/24 11:44:11;;;;;;;7.50;1.38;;;;;;;;;;4999327;28;20145;-88
2023/04/24 11:46:39;;;;;;;1.83;0.70;;;;;;;;;;4999208;28;20050;-87
2023/04/24 11:49:07;;;;;;;4.75;1.00;;;;;;;;;;4999456;28;20577;-86
2023/04/24 11:51:35;;;;;;;0.60;0.60;;;;;;;;;;5016314;28;20418;-90
2023/04/24 11:54:17;;;;;;;2.00;0.75;;;;;;;;;;5009198;28;20141;-88
2023/04/24 11:56:48;;;;;;;1.33;0.60;;;;;;;;;;5015245;28;20041;-90
2023/04/24 11:59:15;;;;;;;0.85;0.50;;;;;;;;;;5015208;28;20052;-88
2023/04/24 12:01:46;;;;;;;5.18;0.93;;;;;;;;;;5015274;28;20050;-88
2023/04/24 12:04:14;;;;;;;0.88;0.60;;;;;;;;;;5015542;28;20071;-90
2023/04/24 12:07:02;;;;;;;1.73;0.63;;;;;;;;;;5014780;28;20042;-89
2023/04/24 12:09:29;;;;;;;2.70;0.90;;;;;;;;;;5014831;28;20046;-88
2023/04/24 12:11:57;;;;;;;2.53;0.70;;;;;;;;;;5014760;28;20042;-87
2023/04/24 12:14:24;;;;;;;5.00;0.63;;;;;;;;;;5015151;28;20046;-88
2023/04/24 12:16:52;;;;;;;0.60;0.60;;;;;;;;;;5014789;28;20504;-89
2023/04/24 12:19:22;;;;;;;0.50;0.50;;;;;;;;;;5015842;28;20073;-90
2023/04/24 12:22:03;;;;;;;8.60;1.13;;;;;;;;;;5014894;28;20074;-87
2023/04/24 12:24:30;;;;;;;2.22;0.60;;;;;;;;;;5014380;28;20042;-89
2023/04/24 12:26:58;;;;;;;1.33;0.68;;;;;;;;;;5014589;28;20054;-88
2023/04/24 12:29:25;;;;;;;6.07;1.30;;;;;;;;;;5018936;28;20060;-89
2023/04/24 12:31:53;;;;;;;7.65;1.15;;;;;;;;;;5035296;28;20046;-91
2023/04/24 12:34:21;;;;;;;3.47;0.90;;;;;;;;;;5017648;28;20050;-91
2023/04/24 12:36:48;;;;;;;4.57;0.70;;;;;;;;;;5017700;28;20500;-88
2023/04/24 12:39:17;;;;;;;2.67;0.73;;;;;;;;;;5034814;28;20482;-88
2023/04/24 12:41:57;;;;;;;0.80;0.80;;;;;;;;;;5017118;28;20118;-92
2023/04/24 12:44:34;;;;;;;2.70;0.90;;;;;;;;;;5035025;28;20050;-90
2023/04/24 12:47:01;;;;;;;5.53;1.13;;;;;;;;;;5035345;28;20041;-89
2023/04/24 12:49:31;;;;;;;2.50;1.00;;;;;;;;;;5017579;28;20573;-89
2023/04/24 12:52:01;;;;;;;3.67;1.00;;;;;;;;;;5035183;28;20052;-90
2023/04/24 12:54:33;;;;;;;1.48;0.77;;;;;;;;;;5017248;28;20081;-87
2023/04/24 12:57:00;;;;;;;1.42;0.80;;;;;;;;;;5034725;28;20049;-88
2023/04/24 12:59:28;;;;;;;1.20;0.73;;;;;;;;;;5017359;28;20136;-88
2023/04/24 13:01:55;;;;;;;0.70;0.70;;;;;;;;;;5017089;28;20045;-90
2023/04/24 13:04:22;;;;;;;1.60;0.65;;;;;;;;;;5035368;28;20056;-88
2023/04/24 13:06:50;;;;;;;3.97;0.88;;;;;;;;;;5018074;28;20072;-90
2023/04/24 13:09:17;;;;;;;4.25;0.90;;;;;;;;;;5017131;28;20112;-88
2023/04/24 13:11:44;;;;;;;1.73;0.70;;;;;;;;;;5017135;28;20121;-89
2023/04/24 13:14:12;;;;;;;1.90;0.65;;;;;;;;;;5034791;28;20417;-89
2023/04/24 13:16:39;;;;;;;1.25;0.93;;;;;;;;;;5016887;28;20050;-88
2023/04/24 13:19:06;;;;;;;1.42;0.82;;;;;;;;;;5017206;28;20049;-89
2023/04/24 13:21:33;;;;;;;9.48;1.27;;;;;;;;;;5017021;28;20057;-88
2023/04/24 13:24:01;;;;;;;0.75;0.75;;;;;;;;;;5016729;28;20065;-90
2023/04/24 13:26:28;;;;;;;0.70;0.60;;;;;;;;;;5017088;28;20049;-89
2023/04/24 13:28:55;;;;;;;0.82;0.43;;;;;;;;;;5016937;28;20052;-88
2023/04/24 13:31:22;;;;;;;2.22;0.70;;;;;;;;;;5016486;28;20053;-89
2023/04/24 13:33:50;;;;;;;0.82;0.82;;;;;;;;;;5016688;28;20046;-89
2023/04/24 13:36:17;;;;;;;0.50;0.50;;;;;;;;;;5015484;28;20050;-89
2023/04/24 13:38:44;;;;;;;0.55;0.52;;;;;;;;;;5016943;28;20060;-91
2023/04/24 13:41:12;;;;;;;0.55;0.50;;;;;;;;;;5016622;28;20049;-90
2023/04/24 13:43:41;;;;;;;3.45;1.35;;;;;;;;;;5017018;28;20092;-90
2023/04/24 13:46:09;;;;;;;0.88;0.50;;;;;;;;;;5016763;28;20042;-90
2023/04/24 13:48:36;;;;;;;0.63;0.63;;;;;;;;;;5033301;28;20391;-93
2023/04/24 13:51:04;;;;;;;0.50;0.50;;;;;;;;;;5016653;28;20517;-90
2023/04/24 13:53:32;;;;;;;1.88;0.80;;;;;;;;;;5033805;28;20052;-88
2023/04/24 13:56:00;;;;;;;0.80;0.73;;;;;;;;;;5016603;28;20081;-89
2023/04/24 13:58:27;;;;;;;2.47;0.52;;;;;;;;;;5016193;28;20045;-89
2023/04/24 14:00:54;;;;;;;8.50;1.00;;;;;;;;;;5033471;28;20049;-90
2023/04/24 14:03:22;;;;;;;1.58;0.40;;;;;;;;;;5014361;28;20114;-91
2023/04/24 14:05:49;;;;;;;1.02;1.02;;;;;;;;;;5016079;28;20049;-89
2023/04/24 14:08:17;;;;;;;0.80;0.80;;;;;;;;;;5033284;28;20053;-89
2023/04/24 14:10:44;;;;;;;9.35;1.38;;;;;;;;;;5016013;28;20076;-89
2023/04/24 14:13:11;;;;;;;1.00;1.00;;;;;;;;;;5015877;28;20403;-89
2023/04/24 14:15:38;;;;;;;12.00;1.00;;;;;;;;;;5016126;28;20450;-88
2023/04/24 14:18:06;;;;;;;11.77;1.00;;;;;;;;;;5015993;28;20057;-89
2023/04/24 14:20:33;;;;;;;2.90;0.77;;;;;;;;;;5033172;28;20046;-92
2023/04/24 14:23:00;;;;;;;3.92;0.88;;;;;;;;;;5015988;28;20405;-92
2023/04/24 14:25:27;;;;;;;1.65;0.70;;;;;;;;;;5033223;28;20587;-90
2023/04/24 14:27:55;;;;;;;3.20;0.77;;;;;;;;;;5015983;28;20049;-88
2023/04/24 14:30:22;;;;;;;0.60;0.60;;;;;;;;;;5032793;28;20057;-89
2023/04/24 14:32:49;;;;;;;0.43;0.43;;;;;;;;;;5015982;28;20052;-91
2023/04/24 14:35:16;;;;;;;0.50;0.50;;;;;;;;;;5015450;28;20053;-90
2023/04/24 14:37:44;;;;;;;6.93;0.77;;;;;;;;;;5037445;28;20077;-87
2023/04/24 14:40:11;;;;;;;2.05;0.90;;;;;;;;;;5036933;28;20053;-90
2023/04/24 14:42:58;;;;;;;8.00;1.00;;;;;;;;;;5022837;28;20054;-91
2023/04/24 14:45:26;;;;;;;1.05;0.57;;;;;;;;;;5036659;28;20141;-89
2023/04/24 14:47:54;;;;;;;2.92;0.93;;;;;;;;;;5037298;28;20056;-90